createdAt,value
2018-11-07T00:04:22.188Z,7.40
2018-11-07T00:09:25.486Z,7.50
2018-11-07T00:14:28.151Z,7.50
2018-11-07T00:19:30.738Z,7.50
2018-11-07T00:24:33.292Z,7.50
2018-11-07T00:29:35.852Z,7.50
2018-11-07T00:34:38.420Z,7.60
2018-11-07T00:39:40.992Z,7.70
2018-11-07T00:44:43.601Z,7.70
2018-11-07T00:49:46.169Z,7.80
2018-11-07T00:54:48.740Z,8.00
2018-11-07T00:59:51.308Z,8.00
2018-11-07T01:04:53.877Z,8.10
2018-11-07T01:09:57.068Z,8.00
2018-11-07T01:15:00.699Z,7.90
2018-11-07T01:20:03.843Z,8.00
2018-11-07T01:25:07.080Z,7.50
2018-11-07T01:30:11.813Z,7.30
2018-11-07T01:35:14.382Z,7.10
2018-11-07T01:40:16.954Z,6.90
2018-11-07T01:45:19.553Z,6.80
2018-11-07T01:50:22.110Z,6.70
2018-11-07T01:55:24.703Z,6.80
2018-11-07T02:00:27.950Z,6.80
2018-11-07T02:05:30.589Z,6.70
2018-11-07T02:10:33.235Z,6.70
2018-11-07T02:15:35.796Z,6.70
2018-11-07T02:20:39.764Z,6.90
2018-11-07T02:25:42.368Z,7.10
2018-11-07T02:30:44.947Z,7.20
2018-11-07T02:35:49.141Z,7.20
2018-11-07T02:40:51.725Z,7.30
2018-11-07T02:45:54.281Z,7.40
2018-11-07T02:50:56.847Z,7.20
2018-11-07T02:55:59.416Z,7.10
2018-11-07T03:01:02.990Z,8.50
2018-11-07T03:06:05.577Z,6.80
2018-11-07T03:11:08.122Z,6.60
2018-11-07T03:16:10.685Z,6.40
2018-11-07T03:21:13.254Z,6.30
2018-11-07T03:26:15.845Z,6.30
2018-11-07T03:31:18.420Z,6.20
2018-11-07T03:41:23.458Z,6.00
2018-11-07T03:46:26.037Z,5.90
2018-11-07T03:51:31.241Z,5.90
2018-11-07T03:56:33.822Z,5.90
2018-11-07T04:01:36.404Z,5.80
2018-11-07T04:06:39.060Z,5.70
2018-11-07T04:11:42.507Z,5.70
2018-11-07T04:16:45.078Z,5.60
2018-11-07T04:21:47.720Z,5.50
2018-11-07T04:26:50.284Z,5.40
2018-11-07T04:31:52.868Z,5.20
2018-11-07T04:36:55.429Z,5.10
2018-11-07T04:41:58.705Z,5.00
2018-11-07T04:47:01.460Z,4.90
2018-11-07T04:52:04.031Z,4.80
2018-11-07T04:57:06.928Z,4.90
2018-11-07T05:02:09.528Z,5.00
2018-11-07T05:07:12.080Z,4.90
2018-11-07T05:12:14.640Z,4.90
2018-11-07T05:17:17.193Z,4.90
2018-11-07T05:22:20.227Z,4.80
2018-11-07T05:27:22.809Z,4.70
2018-11-07T05:32:26.184Z,4.70
2018-11-07T05:37:28.740Z,4.70
2018-11-07T05:42:31.300Z,4.70
2018-11-07T05:47:33.896Z,4.60
2018-11-07T05:52:36.760Z,4.70
2018-11-07T05:57:39.715Z,4.80
2018-11-07T06:02:42.288Z,4.90
2018-11-07T06:07:45.088Z,4.90
2018-11-07T06:12:47.658Z,4.90
2018-11-07T06:17:50.225Z,5.00
2018-11-07T06:22:52.818Z,5.10
2018-11-07T06:27:55.392Z,5.10
2018-11-07T06:32:57.964Z,5.00
2018-11-07T06:38:00.527Z,5.10
2018-11-07T06:43:03.143Z,5.20
2018-11-07T06:53:08.188Z,5.20
2018-11-07T06:58:10.792Z,5.20
2018-11-07T07:08:15.820Z,5.30
2018-11-07T07:13:18.409Z,5.30
2018-11-07T07:18:21.212Z,5.40
2018-11-07T07:23:23.782Z,5.40
2018-11-07T07:28:26.349Z,5.40
2018-11-07T07:33:28.987Z,5.40
2018-11-07T07:38:31.493Z,5.50
2018-11-07T07:43:34.072Z,5.60
2018-11-07T07:48:36.661Z,5.70
2018-11-07T07:53:39.217Z,5.80
2018-11-07T07:58:41.791Z,5.90
2018-11-07T08:03:44.344Z,6.10
2018-11-07T08:08:46.922Z,6.10
2018-11-07T08:13:49.545Z,6.20
2018-11-07T08:18:52.120Z,6.20
2018-11-07T08:23:54.869Z,6.20
2018-11-07T08:28:57.748Z,6.40
2018-11-07T08:34:01.298Z,7.20
2018-11-07T08:39:07.213Z,10.60
2018-11-07T08:44:09.770Z,13.40
2018-11-07T08:49:13.318Z,15.60
2018-11-07T08:54:16.453Z,15.20
2018-11-07T08:59:19.078Z,16.20
2018-11-07T09:04:22.288Z,18.00
2018-11-07T09:09:24.880Z,18.10
2018-11-07T09:14:27.468Z,19.90
2018-11-07T09:19:30.048Z,19.30
2018-11-07T09:24:32.615Z,18.70
2018-11-07T09:29:36.667Z,19.20
2018-11-07T09:34:40.160Z,19.90
2018-11-07T09:39:42.756Z,21.40
2018-11-07T09:44:45.385Z,22.20
2018-11-07T09:49:48.488Z,22.30
2018-11-07T09:54:51.750Z,22.20
2018-11-07T09:59:54.336Z,23.40
2018-11-07T10:04:56.995Z,22.90
2018-11-07T10:10:00.373Z,21.40
2018-11-07T10:15:03.081Z,21.80
2018-11-07T10:20:09.248Z,22.00
2018-11-07T10:25:12.153Z,21.30
2018-11-07T10:30:17.389Z,20.20
2018-11-07T10:35:19.824Z,21.60
2018-11-07T10:40:23.759Z,21.60
2018-11-07T10:45:26.389Z,23.20
2018-11-07T10:50:28.943Z,24.50
2018-11-07T10:55:31.508Z,23.50
2018-11-07T11:00:39.732Z,23.30
2018-11-07T11:05:42.300Z,23.20
2018-11-07T11:10:44.899Z,22.30
2018-11-07T11:15:47.448Z,22.50
2018-11-07T11:20:50.017Z,24.30
2018-11-07T11:25:53.130Z,24.30
2018-11-07T11:30:55.817Z,25.80
2018-11-07T11:35:58.430Z,25.20
2018-11-07T11:41:01.068Z,26.10
2018-11-07T11:46:03.681Z,27.40
2018-11-07T11:51:06.648Z,25.90
2018-11-07T11:56:09.268Z,26.00
2018-11-07T12:01:11.876Z,27.80
2018-11-07T12:06:14.479Z,27.50
2018-11-07T12:11:17.110Z,26.90
2018-11-07T12:16:19.693Z,26.90
2018-11-07T12:21:22.373Z,26.70
2018-11-07T12:26:24.942Z,26.10
2018-11-07T12:31:27.507Z,26.30
2018-11-07T12:36:30.247Z,25.40
2018-11-07T12:41:32.712Z,24.70
2018-11-07T12:46:35.306Z,24.90
2018-11-07T12:51:37.881Z,24.40
2018-11-07T12:56:40.452Z,25.80
2018-11-07T13:01:43.031Z,27.70
2018-11-07T13:06:45.615Z,28.20
2018-11-07T13:11:48.872Z,28.40
2018-11-07T13:16:51.472Z,27.10
2018-11-07T13:21:54.272Z,27.20
2018-11-07T13:26:56.846Z,28.40
2018-11-07T13:31:59.421Z,30.10
2018-11-07T13:37:02.216Z,30.70
2018-11-07T13:42:04.929Z,30.90
2018-11-07T13:47:07.524Z,31.60
2018-11-07T13:52:10.409Z,32.30
2018-11-07T13:57:13.004Z,31.90
2018-11-07T14:02:15.630Z,32.50
2018-11-07T14:07:18.225Z,33.30
2018-11-07T14:12:20.917Z,33.70
2018-11-07T14:17:23.677Z,32.50
2018-11-07T14:22:26.255Z,31.10
2018-11-07T14:27:28.911Z,30.20
2018-11-07T14:32:31.988Z,27.60
2018-11-07T14:37:35.550Z,26.10
2018-11-07T14:42:38.428Z,26.90
2018-11-07T14:47:41.728Z,27.70
2018-11-07T14:52:44.275Z,26.60
2018-11-07T14:57:46.889Z,24.80
2018-11-07T15:02:49.573Z,26.00
2018-11-07T15:07:52.082Z,25.50
2018-11-07T15:12:55.242Z,21.80
2018-11-07T15:17:58.013Z,19.70
2018-11-07T15:23:00.652Z,18.20
2018-11-07T15:28:03.310Z,17.10
2018-11-07T15:33:05.882Z,16.40
2018-11-07T15:38:08.489Z,15.70
2018-11-07T15:43:11.168Z,14.70
2018-11-07T15:48:16.922Z,14.60
2018-11-07T15:53:19.549Z,14.20
2018-11-07T15:58:22.245Z,14.80
2018-11-07T16:03:30.467Z,13.30
2018-11-07T16:08:33.189Z,12.80
2018-11-07T16:13:36.949Z,12.40
2018-11-07T16:18:39.574Z,12.20
2018-11-07T16:23:42.197Z,11.90
2018-11-07T16:28:44.900Z,11.70
2018-11-07T16:33:47.389Z,11.50
2018-11-07T16:38:50.009Z,11.30
2018-11-07T16:43:52.626Z,11.20
2018-11-07T16:48:55.393Z,11.10
2018-11-07T16:53:58.086Z,10.90
2018-11-07T16:59:00.692Z,10.70
2018-11-07T17:04:04.409Z,10.50
2018-11-07T17:09:07.868Z,10.20
2018-11-07T17:14:10.513Z,10.20
2018-11-07T17:19:14.042Z,10.10
2018-11-07T17:24:16.829Z,10.00
2018-11-07T17:29:19.330Z,10.10
2018-11-07T17:34:22.083Z,10.00
2018-11-07T17:39:24.700Z,10.00
2018-11-07T17:44:27.437Z,10.10
2018-11-07T17:49:30.090Z,10.00
2018-11-07T17:54:32.680Z,9.90
2018-11-07T17:59:35.296Z,9.70
2018-11-07T18:04:37.921Z,9.80
2018-11-07T18:09:40.575Z,9.50
2018-11-07T18:14:44.004Z,9.60
2018-11-07T18:19:46.620Z,9.50
2018-11-07T18:24:49.254Z,10.60
2018-11-07T18:29:51.921Z,9.30
2018-11-07T18:34:54.534Z,9.30
2018-11-07T18:39:57.168Z,9.10
2018-11-07T18:44:59.798Z,9.20
2018-11-07T18:50:02.636Z,9.10
2018-11-07T18:55:06.458Z,9.00
2018-11-07T19:00:11.004Z,8.90
2018-11-07T19:05:13.670Z,8.70
2018-11-07T19:10:17.770Z,8.50
2018-11-07T19:15:20.468Z,8.50
2018-11-07T19:20:23.146Z,8.30
2018-11-07T19:25:25.962Z,8.20
2018-11-07T19:30:28.557Z,8.10
2018-11-07T19:35:31.228Z,8.20
2018-11-07T19:40:33.852Z,8.10
2018-11-07T19:45:36.452Z,8.10
2018-11-07T19:50:39.042Z,8.10
2018-11-07T19:55:41.638Z,8.30
2018-11-07T20:00:44.322Z,8.40
2018-11-07T20:05:48.404Z,8.50
2018-11-07T20:10:51.062Z,8.60
2018-11-07T20:15:53.741Z,8.60
2018-11-07T20:30:29.179Z,8.50
2018-11-07T20:35:31.852Z,8.60
2018-11-07T20:40:34.506Z,8.60
2018-11-07T20:45:39.369Z,8.80
2018-11-07T20:50:41.968Z,6.90
2018-11-07T20:55:49.433Z,9.10
2018-11-07T21:00:52.086Z,9.20
2018-11-07T21:05:54.716Z,9.30
2018-11-07T21:10:57.342Z,9.50
2018-11-07T21:15:59.964Z,9.60
2018-11-07T21:21:02.622Z,9.60
2018-11-07T21:26:05.288Z,9.70
2018-11-07T21:31:07.940Z,10.50
2018-11-07T21:36:10.548Z,9.90
2018-11-07T21:41:13.133Z,9.90
2018-11-07T21:46:15.714Z,10.10
2018-11-07T21:51:19.047Z,9.90
2018-11-07T21:56:21.604Z,9.80
2018-11-07T22:01:24.217Z,9.80
2018-11-07T22:06:26.795Z,9.70
2018-11-07T22:11:29.988Z,9.70
2018-11-07T22:16:32.544Z,9.60
2018-11-07T22:21:35.440Z,9.60
2018-11-07T22:26:38.008Z,9.60
2018-11-07T22:31:40.720Z,9.60
2018-11-07T22:36:43.226Z,9.80
2018-11-07T22:41:45.772Z,9.80
2018-11-07T22:46:48.913Z,9.80
2018-11-07T22:51:51.456Z,9.80
2018-11-07T22:56:54.022Z,9.60
2018-11-07T23:01:56.598Z,9.50
2018-11-07T23:06:59.170Z,9.40
2018-11-07T23:12:02.426Z,9.30
2018-11-07T23:17:05.085Z,9.20
2018-11-07T23:22:07.719Z,9.30
2018-11-07T23:27:10.308Z,9.20
2018-11-07T23:32:12.883Z,9.10
2018-11-07T23:37:15.453Z,9.10
2018-11-07T23:42:18.092Z,9.20
2018-11-07T23:47:20.790Z,9.20
2018-11-07T23:52:28.987Z,9.20
2018-11-07T23:57:31.653Z,9.30
